Bismarck, ND

1:24 PM CDT on April 19, 2015 (GMT -0500)
Lincoln | | Change Station
CLOSE
Current Station
Personal Weather Station
Location: Lincoln, ND
Elevation: 1670 ft
Nearby Weather Stations

Elev 1670 ft 46.76 °N, 100.71 °W | Updated 6 minutes ago

Mostly Cloudy
Mostly Cloudy
48.9 °F
Feels Like 44 °F
N
12.5
Wind Variable Wind from West

Today
High -- | Low -- °F
--% Chance of Precip.
Yesterday
High -- | Low -- °F
Precip. -- in
6:48 AM 8:36 PM
New Moon, 1% visible
Pressure 29.92 in
Visibility 10.0 miles
Clouds Scattered Clouds 3100 ft
Mostly Cloudy 4100 ft
Mostly Cloudy 8000 ft
Windchill 44 °F
Dew Point 38 °F
Humidity 67%
Rainfall 0.07 in
Snow Depth Not available.
UV 4 out of 12
Pollen 10.50 out of 12
Air Quality Not available.
Flu Activity Regional
METAR KBIS 191752Z 31022G34KT 10SM SCT031 BKN041 BKN080 09/01 A2989 RMK AO2 PK WND 33038/1654 SLP131 60000 T00940011 10100 20044 58003

More Conditions Fewer Conditions

Pressure 29.92 in
Visibility 10.0 miles
Clouds Scattered Clouds 3100 ft
Mostly Cloudy 4100 ft
Mostly Cloudy 8000 ft
Windchill 44 °F
Dew Point 38 °F
Humidity 67%
Rainfall 0.07 in
Snow Depth Not available.
UV 4 out of 12
Pollen 10.50 out of 12
Air Quality Not available.
Flu Activity Regional
METAR KBIS 191752Z 31022G34KT 10SM SCT031 BKN041 BKN080 09/01 A2989 RMK AO2 PK WND 33038/1654 SLP131 60000 T00940011 10100 20044 58003

More Conditions Fewer Conditions

10-Day Weather Forecast

Almanac

Astronomy

Apr. 19, 2015 Rise Set
Actual Time
Civil Twilight
Nautical Twilight
Astronomical Twilight
Moon
Length of Visible Light
Length of Day
Tomorrow will be .
, % of the Moon is Illuminated

Today's Extremes

State Highs State Lows

Community

WunderPhotos

Upload Photos

1,814,896 photos uploaded!

WunderBlogs® & News

Nearby

Air Quality

  Air Quality AQ Index Pollutant
Not available.

Snow Depth

Station Depth Elevation

Earthquake Activity

City Distance Mag. Time & Date
Minimum magnitude displayed is 2.5.

Coastal Water Temperatures

Place Temperature

Stations

Nearby Weather Stations

Station Location Temp. Windchill Dew Point Humidity Wind Precip. Elev Updated Type